createdAt,value
2018-04-26T00:01:51.927Z,100867.55
2018-04-26T00:04:19.986Z,100866.20
2018-04-26T00:06:47.714Z,100868.83
2018-04-26T00:09:15.323Z,100867.06
2018-04-26T00:11:42.954Z,100869.22
2018-04-26T00:14:10.608Z,100877.47
2018-04-26T00:16:38.270Z,100874.88
2018-04-26T00:19:05.878Z,100880.45
2018-04-26T00:21:33.502Z,100883.90
2018-04-26T00:24:01.102Z,100887.74
2018-04-26T00:26:28.722Z,100880.78
2018-04-26T00:28:56.328Z,100879.44
2018-04-26T00:31:23.966Z,100875.08
2018-04-26T00:33:51.591Z,100870.71
2018-04-26T00:36:19.194Z,100868.55
2018-04-26T00:38:46.917Z,100871.95
2018-04-26T00:41:14.514Z,100863.27
2018-04-26T00:43:42.138Z,100868.78
2018-04-26T00:46:09.742Z,100879.05
2018-04-26T00:48:37.382Z,100870.31
2018-04-26T00:51:04.982Z,100872.80
2018-04-26T00:53:32.574Z,100872.64
2018-04-26T00:56:00.199Z,100874.25
2018-04-26T00:58:27.914Z,100876.30
2018-04-26T01:00:55.543Z,100880.47
2018-04-26T01:03:23.180Z,100877.77
2018-04-26T01:05:50.840Z,100875.94
2018-04-26T01:08:18.444Z,100875.00
2018-04-26T01:10:46.135Z,100877.48
2018-04-26T01:13:13.763Z,100873.06
2018-04-26T01:15:41.450Z,100877.27
2018-04-26T01:18:09.074Z,100877.59
2018-04-26T01:20:36.678Z,100872.35
2018-04-26T01:23:04.316Z,100875.30
2018-04-26T01:25:31.923Z,100880.41
2018-04-26T01:27:59.550Z,100875.99
2018-04-26T01:30:27.172Z,100871.61
2018-04-26T01:32:54.798Z,100871.51
2018-04-26T01:35:22.447Z,100875.31
2018-04-26T01:37:50.071Z,100870.48
2018-04-26T01:40:17.869Z,100866.95
2018-04-26T01:42:45.539Z,100869.05
2018-04-26T01:45:13.142Z,100868.94
2018-04-26T01:47:40.862Z,100875.28
2018-04-26T01:50:08.494Z,100872.62
2018-04-26T01:52:36.100Z,100868.20
2018-04-26T01:55:03.718Z,100866.40
2018-04-26T01:57:31.416Z,100870.59
2018-04-26T01:59:59.055Z,100869.23
2018-04-26T02:02:26.734Z,100864.86
2018-04-26T02:04:54.394Z,100869.52
2018-04-26T02:07:23.685Z,100868.50
2018-04-26T02:09:51.363Z,100870.98
2018-04-26T02:12:19.027Z,100877.80
2018-04-26T02:14:46.669Z,100869.54
2018-04-26T02:17:14.283Z,100868.17
2018-04-26T02:19:41.887Z,100868.11
2018-04-26T02:22:09.530Z,100866.28
2018-04-26T02:24:37.144Z,100865.77
2018-04-26T02:27:04.804Z,100865.27
2018-04-26T02:29:32.416Z,100865.62
2018-04-26T02:32:00.039Z,100867.23
2018-04-26T02:34:27.649Z,100868.08
2018-04-26T02:36:55.278Z,100868.88
2018-04-26T02:39:22.883Z,100870.11
2018-04-26T02:41:50.562Z,100865.72
2018-04-26T02:44:18.176Z,100874.70
2018-04-26T02:46:45.822Z,100867.73
2018-04-26T02:49:13.432Z,100869.82
2018-04-26T02:51:41.111Z,100871.06
2018-04-26T02:54:08.738Z,100867.55
2018-04-26T02:56:36.338Z,100871.84
2018-04-26T02:59:03.977Z,100870.92
2018-04-26T03:01:31.574Z,100867.46
2018-04-26T03:03:59.208Z,100867.88
2018-04-26T03:06:26.853Z,100877.73
2018-04-26T03:08:54.480Z,100877.30
2018-04-26T03:11:22.082Z,100870.84
2018-04-26T03:13:49.695Z,100872.13
2018-04-26T03:16:17.328Z,100881.11
2018-04-26T03:18:44.936Z,100880.67
2018-04-26T03:21:12.558Z,100876.78
2018-04-26T03:23:40.219Z,100884.52
2018-04-26T03:26:07.859Z,100881.94
2018-04-26T03:28:35.508Z,100881.46
2018-04-26T03:31:03.167Z,100886.61
2018-04-26T03:33:30.910Z,100890.92
2018-04-26T03:35:58.643Z,100892.59
2018-04-26T03:38:26.295Z,100890.05
2018-04-26T03:40:53.904Z,100888.77
2018-04-26T03:43:21.534Z,100887.91
2018-04-26T03:45:49.140Z,100895.22
2018-04-26T03:48:16.749Z,100893.02
2018-04-26T03:50:44.499Z,100892.59
2018-04-26T03:53:12.162Z,100889.16
2018-04-26T03:55:39.804Z,100891.30
2018-04-26T03:58:07.406Z,100890.01
2018-04-26T04:00:46.843Z,100891.73
2018-04-26T04:03:26.166Z,100894.80
2018-04-26T04:08:51.620Z,100901.81
2018-04-26T04:11:19.248Z,100896.73
2018-04-26T04:13:46.892Z,100897.74
2018-04-26T04:16:14.485Z,100906.97
2018-04-26T04:18:42.142Z,100912.28
2018-04-26T04:21:09.745Z,100923.69
2018-04-26T04:23:37.457Z,100911.78
2018-04-26T04:26:05.070Z,100913.22
2018-04-26T04:28:32.707Z,100917.64
2018-04-26T04:31:00.351Z,100915.20
2018-04-26T04:33:28.018Z,100917.87
2018-04-26T04:35:55.687Z,100924.46
2018-04-26T04:38:23.344Z,100924.56
2018-04-26T04:40:50.985Z,100922.11
2018-04-26T04:43:18.599Z,100924.39
2018-04-26T04:45:46.231Z,100922.35
2018-04-26T04:48:13.846Z,100925.14
2018-04-26T04:50:41.476Z,100923.16
2018-04-26T04:53:09.090Z,100926.81
2018-04-26T04:55:36.774Z,100927.38
2018-04-26T04:58:04.388Z,100921.08
2018-04-26T05:00:31.994Z,100918.67
2018-04-26T05:02:59.626Z,100914.13
2018-04-26T05:05:27.230Z,100917.76
2018-04-26T05:07:54.890Z,100918.89
2018-04-26T05:10:22.550Z,100922.59
2018-04-26T05:12:50.195Z,100921.15
2018-04-26T05:15:17.877Z,100919.75
2018-04-26T05:17:45.477Z,100922.28
2018-04-26T05:20:13.106Z,100922.25
2018-04-26T05:22:40.720Z,100931.28
2018-04-26T05:25:08.350Z,100938.03
2018-04-26T05:27:35.988Z,100935.58
2018-04-26T05:30:03.758Z,100942.59
2018-04-26T05:32:31.295Z,100939.63
2018-04-26T05:34:58.975Z,100947.01
2018-04-26T05:37:26.586Z,100943.51
2018-04-26T05:39:54.307Z,100943.84
2018-04-26T05:42:21.969Z,100956.28
2018-04-26T05:44:49.608Z,100951.34
2018-04-26T05:47:17.246Z,100951.16
2018-04-26T05:49:44.908Z,100951.00
2018-04-26T05:52:12.616Z,100949.52
2018-04-26T05:54:40.270Z,100949.35
2018-04-26T05:57:07.939Z,100936.67
2018-04-26T05:59:35.572Z,100914.55
2018-04-26T06:02:03.262Z,100914.06
2018-04-26T06:04:30.891Z,100907.09
2018-04-26T06:06:58.503Z,100903.61
2018-04-26T06:09:26.139Z,100907.53
2018-04-26T06:11:53.757Z,100917.03
2018-04-26T06:14:22.131Z,100915.31
2018-04-26T06:16:49.849Z,100916.27
2018-04-26T06:19:17.515Z,100917.23
2018-04-26T06:21:45.178Z,100913.41
2018-04-26T06:24:12.845Z,100917.83
2018-04-26T06:26:40.456Z,100920.47
2018-04-26T06:29:08.088Z,100919.61
2018-04-26T06:31:35.701Z,100918.75
2018-04-26T06:34:03.386Z,100928.30
2018-04-26T06:36:31.647Z,100927.82
2018-04-26T06:38:59.257Z,100934.63
2018-04-26T06:41:26.882Z,100939.22
2018-04-26T06:43:54.491Z,100942.61
2018-04-26T06:46:22.123Z,100939.53
2018-04-26T06:48:49.726Z,100936.89
2018-04-26T06:51:17.364Z,100948.50
2018-04-26T06:53:45.010Z,100957.45
2018-04-26T06:56:12.659Z,100958.70
2018-04-26T06:58:40.267Z,100953.04
2018-04-26T07:01:07.895Z,100952.17
2018-04-26T07:03:35.499Z,100953.52
2018-04-26T07:06:03.123Z,100950.50
2018-04-26T07:08:30.762Z,100951.03
2018-04-26T07:10:58.435Z,100948.92
2018-04-26T07:13:26.092Z,100954.59
2018-04-26T07:15:53.750Z,100956.00
2018-04-26T07:18:21.354Z,100951.36
2018-04-26T07:20:48.992Z,100951.90
2018-04-26T07:23:16.612Z,100950.22
2018-04-26T07:25:44.247Z,100952.48
2018-04-26T07:28:11.862Z,100953.44
2018-04-26T07:30:39.499Z,100955.23
2018-04-26T07:33:07.124Z,100950.53
2018-04-26T07:35:34.772Z,100954.94
2018-04-26T07:38:02.394Z,100954.18
2018-04-26T07:40:30.081Z,100952.17
2018-04-26T07:42:57.694Z,100951.91
2018-04-26T07:45:25.398Z,100948.59
2018-04-26T07:47:53.056Z,100948.27
2018-04-26T07:50:20.664Z,100949.22
2018-04-26T07:52:48.312Z,100953.16
2018-04-26T07:55:16.041Z,100950.13
2018-04-26T07:57:43.683Z,100954.41
2018-04-26T08:00:11.299Z,100946.14
2018-04-26T08:02:39.039Z,100943.64
2018-04-26T08:05:06.655Z,100944.98
2018-04-26T08:07:34.355Z,100946.84
2018-04-26T08:10:01.976Z,100951.22
2018-04-26T08:12:29.623Z,100949.09
2018-04-26T08:14:57.257Z,100948.70
2018-04-26T08:17:24.898Z,100951.74
2018-04-26T08:19:52.571Z,100948.36
2018-04-26T08:22:20.238Z,100941.09
2018-04-26T08:24:47.851Z,100949.75
2018-04-26T08:27:15.558Z,100953.69
2018-04-26T08:29:43.170Z,100959.00
2018-04-26T08:32:10.806Z,100954.80
2018-04-26T08:34:38.419Z,100952.28
2018-04-26T08:37:06.063Z,100961.93
2018-04-26T08:39:33.772Z,100959.02
2018-04-26T08:42:01.435Z,100953.86
2018-04-26T08:44:29.104Z,100959.06
2018-04-26T08:46:56.742Z,100957.33
2018-04-26T08:49:24.416Z,100957.36
2018-04-26T08:51:52.055Z,100957.36
2018-04-26T08:54:19.673Z,100961.19
2018-04-26T08:56:47.412Z,100960.32
2018-04-26T08:59:15.031Z,100965.08
2018-04-26T09:01:42.728Z,100963.34
2018-04-26T09:04:10.371Z,100969.80
2018-04-26T09:06:37.995Z,100966.73
2018-04-26T09:09:05.722Z,100969.67
2018-04-26T09:11:33.400Z,100968.34
2018-04-26T09:14:01.146Z,100963.14
2018-04-26T09:16:28.763Z,100963.93
2018-04-26T09:18:56.399Z,100966.48
2018-04-26T09:21:24.042Z,100968.61
2018-04-26T09:23:51.686Z,100974.66
2018-04-26T09:26:19.303Z,100973.32
2018-04-26T09:28:46.947Z,100972.50
2018-04-26T09:31:14.591Z,100979.11
2018-04-26T09:33:42.342Z,100979.80
2018-04-26T09:36:09.958Z,100977.08
2018-04-26T09:38:37.676Z,100977.58
2018-04-26T09:41:05.264Z,100976.83
2018-04-26T09:43:32.908Z,100982.64
2018-04-26T09:46:00.522Z,100981.98
2018-04-26T09:48:28.589Z,100986.95
2018-04-26T09:50:56.291Z,100986.58
2018-04-26T09:53:23.963Z,100989.72
2018-04-26T09:55:51.623Z,100990.21
2018-04-26T09:58:19.286Z,100995.94
2018-04-26T10:00:46.894Z,100996.43
2018-04-26T10:03:14.550Z,100993.83
2018-04-26T10:05:57.058Z,100996.00
2018-04-26T10:08:24.700Z,100999.09
2018-04-26T10:10:52.346Z,101002.69
2018-04-26T10:13:20.007Z,101010.98
2018-04-26T10:15:47.619Z,101009.36
2018-04-26T10:18:15.231Z,101006.45
2018-04-26T10:20:42.890Z,101007.38
2018-04-26T10:23:10.495Z,101009.16
2018-04-26T10:25:38.151Z,101015.77
2018-04-26T10:28:05.884Z,101010.20
2018-04-26T10:30:33.534Z,101018.52
2018-04-26T10:33:01.205Z,101009.95
2018-04-26T10:35:28.900Z,101013.05
2018-04-26T10:37:56.503Z,101010.90
2018-04-26T10:40:24.196Z,101010.92
2018-04-26T10:42:51.854Z,101023.54
2018-04-26T10:45:19.487Z,101009.73
2018-04-26T10:47:47.096Z,101010.66
2018-04-26T10:50:14.839Z,101016.28
2018-04-26T10:52:42.496Z,101008.54
2018-04-26T10:55:10.127Z,101010.87
2018-04-26T10:57:37.755Z,101016.15
2018-04-26T11:00:05.455Z,101006.20
2018-04-26T11:02:33.060Z,101008.44
2018-04-26T11:05:00.720Z,100996.77
2018-04-26T11:07:28.472Z,101003.78
2018-04-26T11:09:56.120Z,101005.97
2018-04-26T11:12:23.806Z,101007.70
2018-04-26T11:14:51.471Z,101003.76
2018-04-26T11:17:19.179Z,101000.72
2018-04-26T11:19:46.784Z,101004.20
2018-04-26T11:22:14.456Z,100996.31
2018-04-26T11:24:42.117Z,100999.36
2018-04-26T11:27:09.727Z,100995.91
2018-04-26T11:29:37.378Z,100996.81
2018-04-26T11:32:05.007Z,100995.53
2018-04-26T11:34:32.619Z,100996.02
2018-04-26T11:37:00.330Z,101001.29
2018-04-26T11:39:27.986Z,101002.16
2018-04-26T11:41:55.618Z,101003.89
2018-04-26T11:44:24.041Z,100999.98
2018-04-26T11:46:51.675Z,100999.97
2018-04-26T11:49:19.291Z,100999.09
2018-04-26T11:51:47.019Z,101008.59
2018-04-26T11:54:14.630Z,101009.00
2018-04-26T11:56:42.443Z,101006.77
2018-04-26T11:59:10.120Z,101012.80
2018-04-26T12:01:37.760Z,101019.71
2018-04-26T12:04:05.448Z,101017.53
2018-04-26T12:06:33.082Z,101013.19
2018-04-26T12:09:00.695Z,101011.98
2018-04-26T12:11:28.343Z,101007.25
2018-04-26T12:13:55.968Z,101007.73
2018-04-26T12:16:23.651Z,101011.29
2018-04-26T12:18:51.263Z,101015.64
2018-04-26T12:21:18.971Z,101015.25
2018-04-26T12:23:46.578Z,101016.09
2018-04-26T12:26:14.205Z,101017.41
2018-04-26T12:28:41.822Z,101018.26
2018-04-26T12:31:09.459Z,101021.77
2018-04-26T12:33:37.183Z,101026.53
2018-04-26T12:36:04.819Z,101026.47
2018-04-26T12:38:32.513Z,101028.16
2018-04-26T12:41:00.158Z,101035.97
2018-04-26T12:43:27.778Z,101049.84
2018-04-26T12:45:55.494Z,101054.59
2018-04-26T12:48:23.165Z,101070.63
2018-04-26T12:50:50.818Z,101067.53
2018-04-26T12:53:18.482Z,101077.45
2018-04-26T12:55:46.142Z,101089.12
2018-04-26T12:58:13.854Z,101097.72
2018-04-26T13:00:41.475Z,101098.08
2018-04-26T13:03:09.102Z,101092.89
2018-04-26T13:05:36.710Z,101089.48
2018-04-26T13:08:04.355Z,101094.70
2018-04-26T13:10:31.971Z,101088.20
2018-04-26T13:12:59.608Z,101092.20
2018-04-26T13:15:27.242Z,101086.63
2018-04-26T13:17:54.902Z,101086.69
2018-04-26T13:20:22.514Z,101091.95
2018-04-26T13:22:50.151Z,101089.81
2018-04-26T13:25:17.754Z,101088.55
2018-04-26T13:27:45.383Z,101079.47
2018-04-26T13:30:12.986Z,101084.73
2018-04-26T13:32:40.674Z,101079.50
2018-04-26T13:35:09.054Z,101071.25
2018-04-26T13:37:36.687Z,101079.05
2018-04-26T13:40:04.313Z,101081.63
2018-04-26T13:42:32.060Z,101085.56
2018-04-26T13:44:59.706Z,101085.57
2018-04-26T13:47:27.347Z,101089.06
2018-04-26T13:49:55.040Z,101099.51
2018-04-26T13:52:22.691Z,101101.73
2018-04-26T13:54:50.300Z,101096.57
2018-04-26T13:57:18.015Z,101103.97
2018-04-26T13:59:45.683Z,101104.41
2018-04-26T14:02:13.294Z,101102.26
2018-04-26T14:04:40.926Z,101103.16
2018-04-26T14:07:08.530Z,101104.47
2018-04-26T14:09:36.164Z,101101.43
2018-04-26T14:12:03.779Z,101112.36
2018-04-26T14:14:31.455Z,101108.45
2018-04-26T14:16:59.059Z,101111.09
2018-04-26T14:19:26.687Z,101122.45
2018-04-26T14:21:54.340Z,101121.13
2018-04-26T14:24:22.211Z,101113.31
2018-04-26T14:26:49.825Z,101115.47
2018-04-26T14:29:17.545Z,101114.62
2018-04-26T14:31:45.159Z,101115.03
2018-04-26T14:34:12.859Z,101118.52
2018-04-26T14:36:40.524Z,101114.16
2018-04-26T14:39:08.189Z,101118.52
2018-04-26T14:41:35.844Z,101115.06
2018-04-26T14:44:03.470Z,101117.23
2018-04-26T14:46:31.165Z,101123.31
2018-04-26T14:48:58.804Z,101122.88
2018-04-26T14:51:26.420Z,101110.22
2018-04-26T14:53:54.056Z,101118.49
2018-04-26T14:56:21.728Z,101120.66
2018-04-26T14:58:49.372Z,101117.18
2018-04-26T15:01:17.038Z,101118.91
2018-04-26T15:03:44.712Z,101118.49
2018-04-26T15:06:12.372Z,101113.69
2018-04-26T15:08:40.012Z,101118.05
2018-04-26T15:11:07.690Z,101113.70
2018-04-26T15:13:35.339Z,101109.77
2018-04-26T15:16:03.020Z,101113.27
2018-04-26T15:18:30.650Z,101107.61
2018-04-26T15:20:58.276Z,101115.00
2018-04-26T15:23:25.911Z,101115.02
2018-04-26T15:25:53.566Z,101116.75
2018-04-26T15:28:21.231Z,101118.91
2018-04-26T15:30:48.840Z,101125.00
2018-04-26T15:33:16.466Z,101118.92
2018-04-26T15:35:44.070Z,101119.77
2018-04-26T15:38:11.707Z,101123.67
2018-04-26T15:40:39.318Z,101118.02
2018-04-26T15:43:06.926Z,101116.27
2018-04-26T15:45:34.552Z,101113.23
2018-04-26T15:48:02.159Z,101118.05
2018-04-26T15:53:39.939Z,101126.32
2018-04-26T15:56:29.319Z,101130.24
2018-04-26T15:59:08.774Z,101135.46
2018-04-26T16:05:26.901Z,101136.71
2018-04-26T16:08:12.063Z,101150.66
2018-04-26T16:10:57.222Z,101145.37
2018-04-26T16:13:42.331Z,101155.77
2018-04-26T16:16:27.258Z,101152.60
2018-04-26T16:22:29.684Z,101158.61
2018-04-26T16:25:09.247Z,101161.59
2018-04-26T16:27:48.527Z,101172.00
2018-04-26T16:30:27.810Z,101176.33
2018-04-26T16:33:07.250Z,101177.61
2018-04-26T16:35:46.799Z,101174.55
2018-04-26T16:38:26.231Z,101180.99
2018-04-26T16:40:53.858Z,101187.02
2018-04-26T16:43:21.472Z,101186.97
2018-04-26T16:45:49.127Z,101189.48
2018-04-26T16:48:16.787Z,101188.47
2018-04-26T16:50:44.420Z,101176.16
2018-04-26T16:53:12.116Z,101182.52
2018-04-26T16:55:39.747Z,101185.41
2018-04-26T16:58:07.354Z,101179.69
2018-04-26T17:00:35.149Z,101184.00
2018-04-26T17:03:02.763Z,101190.05
2018-04-26T17:05:30.435Z,101195.72
2018-04-26T17:07:58.078Z,101201.92
2018-04-26T17:10:25.710Z,101199.64
2018-04-26T17:12:53.405Z,101207.38
2018-04-26T17:15:21.079Z,101213.36
2018-04-26T17:17:48.707Z,101201.41
2018-04-26T17:20:16.352Z,101204.58
2018-04-26T17:22:43.964Z,101209.42
2018-04-26T17:25:11.599Z,101202.87
2018-04-26T17:27:39.212Z,101205.40
2018-04-26T17:30:06.940Z,101204.80
2018-04-26T17:32:34.616Z,101219.44
2018-04-26T17:35:02.254Z,101221.41
2018-04-26T17:37:30.028Z,101228.59
2018-04-26T17:39:57.665Z,101224.02
2018-04-26T17:42:25.450Z,101230.72
2018-04-26T17:44:53.126Z,101234.79
2018-04-26T17:47:20.740Z,101238.07
2018-04-26T17:49:48.451Z,101238.27
2018-04-26T17:52:16.062Z,101249.34
2018-04-26T17:54:43.693Z,101251.75
2018-04-26T17:57:11.302Z,101250.73
2018-04-26T17:59:39.004Z,101251.88
2018-04-26T18:02:06.662Z,101258.22
2018-04-26T18:04:34.274Z,101256.36
2018-04-26T18:07:01.899Z,101264.04
2018-04-26T18:09:29.547Z,101262.21
2018-04-26T18:11:57.170Z,101267.72
2018-04-26T18:14:25.387Z,101267.11
2018-04-26T18:16:53.015Z,101267.88
2018-04-26T18:19:20.636Z,101275.59
2018-04-26T18:21:48.367Z,101269.83
2018-04-26T18:24:15.970Z,101274.48
2018-04-26T18:26:43.702Z,101279.97
2018-04-26T18:29:11.320Z,101285.02
2018-04-26T18:31:39.029Z,101285.31
2018-04-26T18:34:06.683Z,101292.13
2018-04-26T18:36:34.300Z,101293.28
2018-04-26T18:39:01.931Z,101294.85
2018-04-26T18:41:29.534Z,101306.38
2018-04-26T18:43:57.230Z,101298.04
2018-04-26T18:46:24.990Z,101305.67
2018-04-26T18:48:52.623Z,101313.34
2018-04-26T18:51:20.366Z,101313.61
2018-04-26T18:53:48.086Z,101314.78
2018-04-26T18:56:15.743Z,101322.84
2018-04-26T18:58:43.375Z,101329.63
2018-04-26T19:01:10.979Z,101333.41
2018-04-26T19:03:38.626Z,101336.73
2018-04-26T19:06:06.301Z,101335.75
2018-04-26T19:08:33.952Z,101339.09
2018-04-26T19:11:01.561Z,101337.66
2018-04-26T19:13:29.191Z,101337.55
2018-04-26T19:15:56.822Z,101341.80
2018-04-26T19:18:24.427Z,101349.46
2018-04-26T19:20:52.062Z,101345.89
2018-04-26T19:23:19.738Z,101346.20
2018-04-26T19:25:47.375Z,101352.13
2018-04-26T19:28:14.991Z,101359.82
2018-04-26T19:30:42.736Z,101362.73
2018-04-26T19:33:10.344Z,101357.89
2018-04-26T19:35:38.659Z,101357.35
2018-04-26T19:38:06.259Z,101366.34
2018-04-26T19:40:33.887Z,101366.70
2018-04-26T19:43:01.537Z,101366.16
2018-04-26T19:45:29.466Z,101368.30
2018-04-26T19:47:57.075Z,101368.68
2018-04-26T19:50:24.698Z,101370.45
2018-04-26T19:52:52.419Z,101374.77
2018-04-26T19:55:20.043Z,101368.72
2018-04-26T19:57:47.756Z,101376.95
2018-04-26T20:00:15.370Z,101371.38
2018-04-26T20:02:42.980Z,101367.94
2018-04-26T20:05:10.607Z,101363.25
2018-04-26T20:07:38.206Z,101360.67
2018-04-26T20:10:05.835Z,101363.32
2018-04-26T20:12:33.511Z,101364.25
2018-04-26T20:15:01.124Z,101369.94
2018-04-26T20:17:28.817Z,101363.47
2018-04-26T20:19:56.483Z,101363.97
2018-04-26T20:22:24.147Z,101367.91
2018-04-26T20:24:51.807Z,101368.78
2018-04-26T20:27:19.475Z,101369.27
2018-04-26T20:29:47.091Z,101368.84
2018-04-26T20:32:14.892Z,101368.89
2018-04-26T20:34:43.680Z,101369.77
2018-04-26T20:37:11.351Z,101377.11
2018-04-26T20:39:38.955Z,101375.38
2018-04-26T20:42:06.596Z,101380.56
2018-04-26T20:44:46.107Z,101381.81
2018-04-26T20:47:13.751Z,101378.78
2018-04-26T20:49:41.370Z,101378.34
2018-04-26T20:52:09.004Z,101377.48
2018-04-26T20:54:36.610Z,101380.50
2018-04-26T20:57:04.248Z,101385.64
2018-04-26T20:59:31.887Z,101386.01
2018-04-26T21:01:59.519Z,101383.81
2018-04-26T21:04:27.210Z,101392.78
2018-04-26T21:06:54.866Z,101395.34
2018-04-26T21:09:22.470Z,101392.14
2018-04-26T21:11:50.195Z,101397.19
2018-04-26T21:14:17.854Z,101394.86
2018-04-26T21:16:45.491Z,101404.16
2018-04-26T21:19:13.100Z,101402.66
2018-04-26T21:21:40.727Z,101402.05
2018-04-26T21:24:08.414Z,101401.41
2018-04-26T21:26:36.034Z,101403.37
2018-04-26T21:29:03.658Z,101404.93
2018-04-26T21:31:31.286Z,101407.80
2018-04-26T21:33:58.919Z,101406.35
2018-04-26T21:36:26.620Z,101407.92
2018-04-26T21:38:54.244Z,101409.44
2018-04-26T21:41:21.939Z,101413.21
2018-04-26T21:43:49.611Z,101416.93
2018-04-26T21:46:17.219Z,101421.89
2018-04-26T21:48:44.858Z,101421.79
2018-04-26T21:51:17.984Z,101429.41
2018-04-26T21:53:51.090Z,101437.87
2018-04-26T21:56:24.384Z,101439.88
2018-04-26T21:58:57.626Z,101447.91
2018-04-26T22:01:30.791Z,101442.57
2018-04-26T22:04:03.978Z,101442.84
2018-04-26T22:06:31.588Z,101437.94
2018-04-26T22:08:59.215Z,101439.96
2018-04-26T22:11:26.823Z,101445.84
2018-04-26T22:13:54.451Z,101442.25
2018-04-26T22:16:22.060Z,101438.28
2018-04-26T22:18:49.760Z,101441.20
2018-04-26T22:21:17.367Z,101443.28
2018-04-26T22:23:44.991Z,101438.94
2018-04-26T22:26:12.590Z,101435.44
2018-04-26T22:28:40.305Z,101445.76
2018-04-26T22:31:07.917Z,101443.95
2018-04-26T22:33:35.526Z,101447.34
2018-04-26T22:36:03.146Z,101442.14
2018-04-26T22:38:30.853Z,101444.66
2018-04-26T22:40:58.484Z,101442.81
2018-04-26T22:43:26.086Z,101444.94
2018-04-26T22:45:53.708Z,101440.56
2018-04-26T22:48:21.394Z,101438.33
2018-04-26T22:50:49.022Z,101442.56
2018-04-26T22:53:16.727Z,101442.09
2018-04-26T22:55:44.354Z,101441.52
2018-04-26T22:58:11.959Z,101449.25
2018-04-26T23:00:39.592Z,101443.13
2018-04-26T23:03:07.288Z,101447.34
2018-04-26T23:05:34.930Z,101451.92
2018-04-26T23:08:02.600Z,101450.09
2018-04-26T23:10:30.254Z,101452.95
2018-04-26T23:12:57.864Z,101455.85
2018-04-26T23:15:25.495Z,101455.33
2018-04-26T23:17:53.098Z,101464.28
2018-04-26T23:20:20.811Z,101465.07
2018-04-26T23:22:48.475Z,101462.87
2018-04-26T23:25:16.102Z,101464.51
2018-04-26T23:27:43.796Z,101472.59
2018-04-26T23:30:11.459Z,101468.19
2018-04-26T23:32:39.118Z,101469.41
2018-04-26T23:35:06.786Z,101470.61
2018-04-26T23:37:34.402Z,101477.92
2018-04-26T23:40:02.006Z,101482.15
2018-04-26T23:42:29.639Z,101488.56
2018-04-26T23:44:57.241Z,101481.97
2018-04-26T23:47:24.863Z,101481.05
2018-04-26T23:49:52.472Z,101485.73
2018-04-26T23:52:20.106Z,101490.87
2018-04-26T23:54:47.775Z,101490.80
2018-04-26T23:57:15.402Z,101492.06
2018-04-26T23:59:43.098Z,101493.70
